Time;durP1;ratioP1;P1;durP2;ratioP2;P2;SDS_P1;SDS_P2;PMS_P1;PMS_P2;Temp;Humidity;BMP_temperature;BMP_pressure;BME280_temperature;BME280_humidity;BME280_pressure;Samples;Min_cycle;Max_cycle;Signal;HPM_P1;HPM_P2
2022/10/02 00:00:50;;;;;;;13.10;2.70;;;;;;;13.21;100.00;101443.19;5009110;28;20021;-63
2022/10/02 00:03:27;;;;;;;20.35;3.13;;;;;;;13.18;100.00;101433.56;5027261;28;20397;-62
2022/10/02 00:06:05;;;;;;;17.00;3.22;;;;;;;13.16;100.00;101446.03;5010021;28;20048;-63
2022/10/02 00:08:33;;;;;;;23.35;3.70;;;;;;;13.14;100.00;101446.06;5027223;28;20036;-63
2022/10/02 00:11:03;;;;;;;18.77;3.50;;;;;;;13.14;100.00;101442.56;5028744;28;20051;-64
2022/10/02 00:13:47;;;;;;;13.35;2.97;;;;;;;13.13;100.00;101444.31;5008783;28;20041;-63
2022/10/02 00:16:33;;;;;;;9.25;3.20;;;;;;;13.09;100.00;101453.28;5027219;28;20098;-65
2022/10/02 00:18:59;;;;;;;12.13;2.65;;;;;;;13.11;100.00;101454.13;5030338;28;20418;-64
2022/10/02 00:21:54;;;;;;;16.50;3.38;;;;;;;13.09;100.00;101457.72;5030748;28;20510;-63
2022/10/02 00:24:23;;;;;;;17.70;3.13;;;;;;;13.06;100.00;101458.69;5028019;28;20567;-64
2022/10/02 00:26:54;;;;;;;;;;;;;;;13.07;100.00;101454.28;5033094;28;20032;-64
2022/10/02 00:29:23;;;;;;;22.05;2.70;;;;;;;13.01;100.00;101453.53;5049652;28;19917;-63
2022/10/02 00:32:09;;;;;;;18.53;3.20;;;;;;;12.99;100.00;101449.22;5050801;28;20718;-64
2022/10/02 00:34:49;;;;;;;16.30;2.60;;;;;;;12.98;100.00;101452.81;5035190;28;20041;-63
2022/10/02 00:37:43;;;;;;;20.00;3.17;;;;;;;12.95;100.00;101463.50;5051011;28;20047;-64
2022/10/02 00:40:44;;;;;;;19.63;3.15;;;;;;;12.95;100.00;101463.50;5048909;28;20017;-62
2022/10/02 00:43:25;;;;;;;21.38;4.20;;;;;;;12.97;100.00;101473.09;5038761;28;20045;-63
2022/10/02 00:46:02;;;;;;;22.58;3.50;;;;;;;12.96;100.00;101465.22;5050140;28;20032;-64
2022/10/02 00:48:47;;;;;;;14.73;3.05;;;;;;;12.99;100.00;101460.69;5048623;28;20048;-64
2022/10/02 00:51:18;;;;;;;14.63;3.15;;;;;;;13.02;100.00;101470.28;5050263;28;20017;-65
2022/10/02 00:54:05;;;;;;;18.55;3.17;;;;;;;13.08;100.00;101467.44;5049719;28;20064;-63
2022/10/02 00:56:49;;;;;;;15.30;3.60;;;;;;;13.16;100.00;101471.59;5049834;28;20048;-63
2022/10/02 00:59:23;;;;;;;17.52;3.25;;;;;;;13.18;100.00;101470.63;5049906;28;20063;-63
2022/10/02 01:02:10;;;;;;;17.33;3.15;;;;;;;13.18;100.00;101462.69;5049472;28;20036;-63
2022/10/02 01:04:37;;;;;;;21.25;3.50;;;;;;;13.26;100.00;101465.06;5048677;28;20029;-63
2022/10/02 01:07:05;;;;;;;17.40;3.15;;;;;;;13.30;100.00;101466.69;5049088;28;20036;-63
2022/10/02 01:09:31;;;;;;;19.33;3.25;;;;;;;13.32;100.00;101467.50;5031398;28;20035;-65
2022/10/02 01:11:56;;;;;;;17.83;3.70;;;;;;;13.36;100.00;101470.88;5031756;28;20033;-64
2022/10/02 01:14:31;;;;;;;20.35;4.18;;;;;;;13.40;100.00;101475.19;5030649;28;20051;-64
2022/10/02 01:16:57;;;;;;;22.77;3.45;;;;;;;13.43;100.00;101476.84;5049737;28;20117;-64
2022/10/02 01:19:35;;;;;;;20.67;3.08;;;;;;;13.44;100.00;101476.78;5047467;28;20108;-62
2022/10/02 01:22:16;;;;;;;16.50;3.10;;;;;;;13.46;100.00;101468.78;5049162;28;20029;-63
2022/10/02 01:24:49;;;;;;;21.23;3.60;;;;;;;13.43;100.00;101474.19;5029403;28;20025;-66
2022/10/02 01:27:15;;;;;;;16.48;3.47;;;;;;;13.42;100.00;101480.41;5028531;28;20032;-64
2022/10/02 01:29:43;;;;;;;23.50;3.22;;;;;;;13.43;100.00;101479.50;5011654;28;20021;-64
2022/10/02 01:32:08;;;;;;;22.58;3.40;;;;;;;13.45;100.00;101464.44;5029316;28;20049;-63
2022/10/02 01:34:34;;;;;;;19.85;3.08;;;;;;;13.48;100.00;101466.94;5027933;28;20025;-64
2022/10/02 01:36:59;;;;;;;20.85;3.40;;;;;;;13.52;100.00;101463.31;5025009;28;20036;-64
2022/10/02 01:39:25;;;;;;;22.35;3.75;;;;;;;13.53;100.00;101467.69;5048504;28;20033;-64
2022/10/02 01:41:50;;;;;;;21.67;3.35;;;;;;;13.63;100.00;101484.97;5030510;28;20033;-63
2022/10/02 01:44:16;;;;;;;28.75;4.18;;;;;;;13.71;100.00;101481.16;5049382;28;20036;-64
2022/10/02 01:47:03;;;;;;;21.63;3.20;;;;;;;13.78;100.00;101480.00;5048640;28;20052;-64
2022/10/02 01:49:44;;;;;;;17.10;2.92;;;;;;;13.87;100.00;101486.75;5029532;28;20028;-63
2022/10/02 01:52:19;;;;;;;16.38;3.50;;;;;;;13.84;100.00;101490.38;5048737;28;20033;-65
2022/10/02 01:55:06;;;;;;;27.85;4.15;;;;;;;13.79;100.00;101491.47;5048104;28;20479;-64
2022/10/02 01:57:52;;;;;;;29.25;4.30;;;;;;;13.76;100.00;101489.81;5048647;28;20120;-62
2022/10/02 02:00:23;;;;;;;22.55;3.20;;;;;;;13.77;100.00;101504.78;5029849;28;20028;-64
2022/10/02 02:03:11;;;;;;;29.35;4.43;;;;;;;13.84;100.00;101495.69;5029645;28;20533;-65
2022/10/02 02:05:57;;;;;;;28.75;3.90;;;;;;;13.86;100.00;101500.91;5047557;28;20037;-62
2022/10/02 02:08:56;;;;;;;29.38;3.80;;;;;;;13.84;100.00;101500.09;5047206;28;20071;-62
2022/10/02 02:11:21;;;;;;;31.55;3.67;;;;;;;13.77;100.00;101499.47;5048106;28;20033;-64
2022/10/02 02:13:48;;;;;;;25.90;3.70;;;;;;;13.71;100.00;101497.06;5046974;28;20025;-62
2022/10/02 02:16:38;;;;;;;28.70;4.15;;;;;;;13.61;100.00;101507.97;5047583;28;20353;-62
2022/10/02 02:19:22;;;;;;;20.73;3.10;;;;;;;13.52;100.00;101495.94;5048027;28;20032;-61
2022/10/02 02:21:54;;;;;;;30.00;3.65;;;;;;;13.47;100.00;101499.63;5033381;28;20472;-63
2022/10/02 02:24:24;;;;;;;20.77;3.03;;;;;;;13.39;100.00;101507.84;5027742;28;20033;-63
2022/10/02 02:26:54;;;;;;;20.83;3.35;;;;;;;13.30;100.00;101503.72;5010293;28;20034;-63
2022/10/02 02:29:21;;;;;;;24.50;4.18;;;;;;;13.25;100.00;101495.09;4993652;28;20479;-63
2022/10/02 02:31:50;;;;;;;24.10;3.42;;;;;;;13.18;100.00;101489.16;5011204;28;20029;-62
2022/10/02 02:34:20;;;;;;;21.80;3.40;;;;;;;13.17;100.00;101498.00;5037768;28;20025;-62
2022/10/02 02:36:50;;;;;;;26.42;4.03;;;;;;;13.18;100.00;101504.19;5030249;28;20021;-63
2022/10/02 02:39:18;;;;;;;22.48;4.20;;;;;;;13.21;100.00;101496.09;5047283;28;20024;-63
2022/10/02 02:41:50;;;;;;;29.80;3.40;;;;;;;13.26;100.00;101504.78;5030324;28;20021;-63
2022/10/02 02:44:26;;;;;;;22.17;3.70;;;;;;;13.28;100.00;101508.25;5029837;28;20467;-64
2022/10/02 02:47:02;;;;;;;27.52;3.50;;;;;;;13.30;100.00;101506.38;5041825;28;20260;-62
2022/10/02 02:49:31;;;;;;;24.05;3.47;;;;;;;13.29;100.00;101504.66;5028914;28;20025;-62
2022/10/02 02:51:58;;;;;;;23.52;3.85;;;;;;;13.28;100.00;101502.94;5046090;28;20029;-63
2022/10/02 02:54:35;;;;;;;20.70;3.65;;;;;;;13.26;100.00;101507.41;5046629;28;20445;-63
2022/10/02 02:57:03;;;;;;;33.53;3.63;;;;;;;13.30;100.00;101503.72;5029138;28;20108;-63
2022/10/02 02:59:30;;;;;;;17.25;2.90;;;;;;;13.35;100.00;101504.44;5030006;28;20586;-62
2022/10/02 03:01:55;;;;;;;21.00;3.75;;;;;;;13.36;100.00;101505.28;5045694;28;20112;-62
2022/10/02 03:04:21;;;;;;;16.55;2.55;;;;;;;13.32;100.00;101504.56;5046554;28;20163;-63
2022/10/02 03:06:48;;;;;;;20.73;2.95;;;;;;;13.29;100.00;101511.72;5046661;28;20104;-63
2022/10/02 03:09:16;;;;;;;18.70;3.13;;;;;;;13.26;100.00;101512.72;5030108;28;20033;-63
2022/10/02 03:12:04;;;;;;;24.85;3.28;;;;;;;13.26;100.00;101504.78;5029457;28;20056;-63
2022/10/02 03:14:38;;;;;;;22.98;3.95;;;;;;;13.25;100.00;101513.63;5047061;28;20087;-63
2022/10/02 03:17:15;;;;;;;22.10;3.53;;;;;;;13.21;100.00;101515.50;5047916;28;20082;-62
2022/10/02 03:19:56;;;;;;;25.02;3.67;;;;;;;13.16;100.00;101519.22;5047597;28;20033;-63
2022/10/02 03:22:35;;;;;;;21.88;3.85;;;;;;;13.11;100.00;101524.69;5046846;28;20036;-61
2022/10/02 03:25:15;;;;;;;19.77;3.17;;;;;;;13.10;100.00;101518.50;5048684;28;20040;-62
2022/10/02 03:28:06;;;;;;;17.13;2.85;;;;;;;13.14;100.00;101528.09;5048040;28;20056;-62
2022/10/02 03:30:32;;;;;;;16.63;3.38;;;;;;;13.23;100.00;101528.69;5038339;28;20706;-62
2022/10/02 03:32:59;;;;;;;15.98;3.25;;;;;;;13.31;100.00;101539.91;5028500;28;20049;-62
2022/10/02 03:35:25;;;;;;;28.13;3.38;;;;;;;13.44;100.00;101542.97;5047089;28;20075;-63
2022/10/02 03:37:56;;;;;;;22.92;2.92;;;;;;;13.59;100.00;101538.06;5047025;28;20025;-64
2022/10/02 03:40:26;;;;;;;20.25;3.15;;;;;;;13.68;100.00;101534.22;5028919;28;20033;-66
2022/10/02 03:42:52;;;;;;;25.02;3.10;;;;;;;13.69;100.00;101533.34;5047478;28;20433;-65
2022/10/02 03:45:18;;;;;;;16.35;2.63;;;;;;;13.69;100.00;101528.03;5045832;28;20020;-63
2022/10/02 03:47:44;;;;;;;13.70;2.63;;;;;;;13.64;100.00;101526.41;5046741;28;20025;-67
2022/10/02 03:50:12;;;;;;;15.88;2.88;;;;;;;13.62;100.00;101522.09;5046923;28;20383;-66
2022/10/02 03:52:38;;;;;;;14.38;2.70;;;;;;;13.50;100.00;101533.97;5049448;28;20059;-63
2022/10/02 03:55:31;;;;;;;17.15;2.65;;;;;;;13.38;100.00;101520.22;5051153;28;20567;-65
2022/10/02 03:57:57;;;;;;;15.65;2.78;;;;;;;13.27;100.00;101517.94;5050131;28;20332;-63
2022/10/02 04:00:28;;;;;;;17.75;2.65;;;;;;;13.18;100.00;101518.25;5051009;28;20025;-65
2022/10/02 04:03:00;;;;;;;18.73;2.72;;;;;;;13.09;100.00;101518.56;5048972;28;20029;-69
2022/10/02 04:05:36;;;;;;;14.13;3.05;;;;;;;13.01;100.00;101516.19;5050800;28;20028;-69
2022/10/02 04:08:16;;;;;;;12.68;2.67;;;;;;;13.00;100.00;101520.59;5049267;28;20036;-65
2022/10/02 04:10:49;;;;;;;21.60;3.03;;;;;;;12.98;100.00;101516.28;5031877;28;20055;-67
2022/10/02 04:13:31;;;;;;;19.05;3.38;;;;;;;13.04;100.00;101516.09;5013093;28;20440;-64
2022/10/02 04:16:32;;;;;;;21.20;4.05;;;;;;;13.16;100.00;101527.16;5030480;28;20496;-64
2022/10/02 04:19:10;;;;;;;14.07;3.13;;;;;;;13.22;100.00;101521.69;5012312;28;20036;-64
2022/10/02 04:21:53;;;;;;;19.25;2.92;;;;;;;13.21;100.00;101525.22;5046360;28;20159;-68
2022/10/02 04:24:33;;;;;;;26.45;3.33;;;;;;;13.19;100.00;101524.41;5048820;28;20021;-63
2022/10/02 04:27:05;;;;;;;17.85;2.75;;;;;;;13.16;100.00;101532.47;5032380;28;21001;-64
2022/10/02 04:29:37;;;;;;;16.42;2.45;;;;;;;13.10;100.00;101528.25;5032373;28;20025;-67
2022/10/02 04:32:23;;;;;;;20.67;3.08;;;;;;;13.05;100.00;101536.34;5032385;28;20056;-67
2022/10/02 04:34:49;;;;;;;17.58;2.90;;;;;;;13.01;100.00;101532.91;5027583;28;20524;-67
2022/10/02 04:37:39;;;;;;;17.20;2.83;;;;;;;12.97;100.00;101541.00;5032354;28;20031;-66
2022/10/02 04:40:15;;;;;;;25.50;3.40;;;;;;;12.94;100.00;101552.56;5046408;28;20035;-67
2022/10/02 04:42:52;;;;;;;17.02;2.97;;;;;;;13.00;100.00;101554.13;5049240;28;20025;-67
2022/10/02 04:45:30;;;;;;;23.75;3.47;;;;;;;13.06;100.00;101556.56;5049690;28;20039;-65
2022/10/02 04:48:06;;;;;;;20.50;3.40;;;;;;;13.07;100.00;101555.69;5047738;28;20028;-67
2022/10/02 04:50:40;;;;;;;13.73;2.50;;;;;;;13.03;100.00;101561.97;5043619;28;20029;-68
2022/10/02 04:53:24;;;;;;;20.02;2.63;;;;;;;13.03;100.00;101554.03;5031797;28;20017;-67
2022/10/02 04:56:07;;;;;;;20.40;2.75;;;;;;;12.98;100.00;101553.31;5050047;28;20666;-68
2022/10/02 04:58:54;;;;;;;16.35;2.58;;;;;;;12.96;100.00;101563.97;5049265;28;20375;-68
2022/10/02 05:01:35;;;;;;;21.52;3.13;;;;;;;12.93;100.00;101571.13;5049072;28;20104;-67
2022/10/02 05:04:22;;;;;;;20.67;3.30;;;;;;;12.88;100.00;101584.47;5048037;28;20398;-68
2022/10/02 05:07:12;;;;;;;23.75;3.53;;;;;;;12.83;100.00;101586.41;5049938;28;20460;-66
2022/10/02 05:10:09;;;;;;;16.00;2.80;;;;;;;12.75;100.00;101600.75;5044499;28;20029;-62
2022/10/02 05:12:34;;;;;;;18.33;3.22;;;;;;;12.68;100.00;101593.06;5044382;28;20430;-66
2022/10/02 05:15:02;;;;;;;14.40;2.50;;;;;;;12.66;100.00;101600.16;5050120;28;20041;-62
2022/10/02 05:17:51;;;;;;;20.83;3.83;;;;;;;12.57;100.00;101607.47;5030531;28;20040;-67
2022/10/02 05:20:27;;;;;;;20.33;3.15;;;;;;;12.56;100.00;101607.50;5018186;28;20280;-65
2022/10/02 05:23:30;;;;;;;28.20;3.03;;;;;;;12.58;100.00;101603.06;5010791;28;20403;-67
2022/10/02 05:25:58;;;;;;;17.35;2.92;;;;;;;12.64;100.00;101614.28;5023993;28;20041;-65
2022/10/02 05:28:47;;;;;;;25.40;3.20;;;;;;;12.74;100.00;101622.78;5048842;28;20634;-67
2022/10/02 05:31:16;;;;;;;16.55;2.40;;;;;;;12.79;100.00;101605.94;5048449;28;20337;-68
2022/10/02 05:33:47;;;;;;;;;;;;;;;12.79;100.00;101609.44;5048848;28;20495;-63
2022/10/02 05:36:31;;;;;;;18.10;3.40;;;;;;;12.77;100.00;101620.06;5038976;28;19930;-66
2022/10/02 05:39:06;;;;;;;12.32;2.30;;;;;;;12.78;100.00;101631.53;5045796;28;20427;-66
2022/10/02 05:41:59;;;;;;;20.95;3.15;;;;;;;12.80;100.00;101619.13;5032112;28;20028;-64
2022/10/02 05:44:29;;;;;;;14.02;2.85;;;;;;;12.80;100.00;101613.84;5049030;28;20021;-66
2022/10/02 05:47:00;;;;;;;22.42;3.50;;;;;;;12.81;100.00;101618.22;5024288;28;20982;-67
2022/10/02 05:49:40;;;;;;;23.77;3.15;;;;;;;12.83;100.00;101613.75;5030914;28;20029;-67
2022/10/02 05:52:12;;;;;;;19.67;3.58;;;;;;;12.85;100.00;101611.03;5048343;28;20033;-68
2022/10/02 05:54:42;;;;;;;22.88;3.08;;;;;;;12.86;100.00;101618.91;5031197;28;20145;-66
2022/10/02 05:57:25;;;;;;;16.52;2.97;;;;;;;12.91;100.00;101625.88;5047673;28;20106;-67
2022/10/02 06:00:12;;;;;;;16.15;2.95;;;;;;;12.94;100.00;101631.06;5049724;28;20013;-66
2022/10/02 06:02:47;;;;;;;20.33;2.72;;;;;;;12.97;100.00;101626.53;5043848;28;20147;-66
2022/10/02 06:05:26;;;;;;;12.70;2.97;;;;;;;13.04;100.00;101635.16;5031628;28;20402;-65
2022/10/02 06:07:56;;;;;;;14.60;2.70;;;;;;;13.10;100.00;101634.94;5048465;28;20029;-66
2022/10/02 06:10:28;;;;;;;15.52;2.97;;;;;;;13.17;100.00;101637.38;5047241;28;20396;-66
2022/10/02 06:13:16;;;;;;;21.20;2.72;;;;;;;13.23;100.00;101638.06;5047487;28;20021;-64
2022/10/02 06:15:51;;;;;;;18.58;2.72;;;;;;;13.23;100.00;101637.19;5042672;28;20045;-67
2022/10/02 06:18:25;;;;;;;17.13;2.80;;;;;;;13.24;100.00;101639.78;5047224;28;20032;-68
2022/10/02 06:21:03;;;;;;;13.68;2.40;;;;;;;13.23;100.00;101645.13;5030947;28;20158;-69
2022/10/02 06:23:36;;;;;;;17.05;2.67;;;;;;;13.20;100.00;101637.28;5048548;28;20021;-62
2022/10/02 06:26:05;;;;;;;19.48;2.45;;;;;;;13.23;100.00;101645.13;5048337;28;20028;-68
2022/10/02 06:28:33;;;;;;;13.38;2.38;;;;;;;13.27;100.00;101655.56;5036137;28;20074;-67
2022/10/02 06:31:05;;;;;;;18.57;3.47;;;;;;;13.31;100.00;101666.06;5031607;28;20033;-65
2022/10/02 06:33:32;;;;;;;14.18;2.55;;;;;;;13.32;100.00;101662.50;5028900;28;20035;-63
2022/10/02 06:36:16;;;;;;;17.30;2.25;;;;;;;13.37;100.00;101661.41;5046963;28;20040;-65
2022/10/02 06:39:00;;;;;;;12.40;2.85;;;;;;;13.44;100.00;101672.69;5044410;28;20044;-66
2022/10/02 06:41:47;;;;;;;14.70;2.47;;;;;;;13.50;100.00;101674.28;5043344;28;20372;-63
2022/10/02 06:44:34;;;;;;;13.93;2.40;;;;;;;13.59;100.00;101676.66;5046851;28;20025;-65
2022/10/02 06:47:08;;;;;;;14.57;3.33;;;;;;;13.69;100.00;101686.94;5045450;28;20432;-64
2022/10/02 06:49:45;;;;;;;8.05;2.17;;;;;;;13.79;100.00;101687.47;5045931;28;20078;-63
2022/10/02 06:52:14;;;;;;;16.05;2.65;;;;;;;13.84;100.00;101694.34;5011757;28;20454;-68
2022/10/02 06:54:39;;;;;;;;;;;;;;;13.91;100.00;101692.38;5019076;28;20486;-62
2022/10/02 06:57:23;;;;;;;10.90;2.30;;;;;;;13.99;100.00;101684.13;5045796;28;19921;-66
2022/10/02 07:00:04;;;;;;;16.23;2.60;;;;;;;14.07;100.00;101691.81;5045845;28;20268;-66
2022/10/02 07:02:44;;;;;;;14.55;2.75;;;;;;;14.15;100.00;101705.69;5044580;28;20025;-66
2022/10/02 07:05:37;;;;;;;22.38;2.90;;;;;;;14.26;100.00;101697.34;5028134;28;20032;-65
2022/10/02 07:08:21;;;;;;;16.75;3.05;;;;;;;14.32;100.00;101699.75;5046164;28;20024;-67
2022/10/02 07:10:54;;;;;;;11.30;2.33;;;;;;;14.38;100.00;101706.63;5027603;28;20025;-68
2022/10/02 07:13:19;;;;;;;18.20;2.80;;;;;;;14.42;100.00;101702.94;5043133;28;20087;-65
2022/10/02 07:15:54;;;;;;;15.88;2.70;;;;;;;14.50;100.00;101705.31;5046157;28;20091;-68
2022/10/02 07:18:43;;;;;;;20.65;3.08;;;;;;;14.53;100.00;101708.72;5042856;28;20031;-65
2022/10/02 07:21:25;;;;;;;16.85;3.15;;;;;;;14.57;100.00;101706.81;5021743;28;20115;-65
2022/10/02 07:24:15;;;;;;;13.70;2.38;;;;;;;14.68;100.00;101710.84;5043610;28;20055;-63
2022/10/02 07:26:55;;;;;;;13.75;2.92;;;;;;;14.77;100.00;101718.47;5038001;28;20045;-67
2022/10/02 07:29:28;;;;;;;10.02;2.47;;;;;;;14.82;100.00;101715.69;5043530;28;20028;-66
2022/10/02 07:31:56;;;;;;;15.13;2.92;;;;;;;14.90;100.00;101721.59;5045049;28;20033;-66
2022/10/02 07:34:52;;;;;;;15.93;2.83;;;;;;;14.98;100.00;101714.19;5046108;28;20044;-67
2022/10/02 07:37:28;;;;;;;13.52;2.50;;;;;;;15.03;100.00;101721.97;5046621;28;20088;-68
2022/10/02 07:40:22;;;;;;;17.00;3.28;;;;;;;15.11;100.00;101716.38;5047988;28;20025;-66
2022/10/02 07:43:26;;;;;;;17.77;3.25;;;;;;;15.19;100.00;101727.53;5002902;28;20037;-64
2022/10/02 07:46:15;;;;;;;12.90;3.00;;;;;;;15.32;100.00;101724.41;5024271;28;20036;-65
2022/10/02 07:48:50;;;;;;;18.90;2.95;;;;;;;15.42;100.00;101725.75;5043222;28;20029;-66
2022/10/02 07:54:43;;;;;;;12.70;2.20;;;;;;;15.64;100.00;101731.06;5045057;28;20568;-64
2022/10/02 07:57:26;;;;;;;12.13;2.80;;;;;;;15.74;100.00;101736.84;5017124;28;20510;-67
2022/10/02 07:59:56;;;;;;;24.15;2.92;;;;;;;15.77;99.71;101736.72;5027727;28;20021;-68
2022/10/02 08:02:28;;;;;;;22.20;3.60;;;;;;;15.83;99.43;101743.56;5042966;28;20459;-65
2022/10/02 08:04:56;;;;;;;13.65;2.47;;;;;;;15.88;99.14;101746.91;5044897;28;20040;-66
2022/10/02 08:07:22;;;;;;;17.88;2.67;;;;;;;15.95;98.96;101749.31;5027274;28;20021;-64
2022/10/02 08:09:50;;;;;;;13.77;3.42;;;;;;;15.99;98.99;101753.59;5028682;28;20328;-65
2022/10/02 08:12:36;;;;;;;13.65;2.63;;;;;;;16.05;99.02;101756.00;5028987;28;20028;-66
2022/10/02 08:15:03;;;;;;;12.93;2.75;;;;;;;16.07;99.12;101762.09;5046057;28;20037;-66
2022/10/02 08:17:39;;;;;;;10.55;2.20;;;;;;;16.16;98.87;101764.38;5045644;28;20025;-67
2022/10/02 08:20:14;;;;;;;14.45;3.45;;;;;;;16.23;97.84;101769.44;5046359;28;20025;-66
2022/10/02 08:22:50;;;;;;;18.80;3.00;;;;;;;16.32;97.60;101777.03;5039689;28;20078;-67
2022/10/02 08:25:21;;;;;;;17.95;3.38;;;;;;;16.36;97.72;101783.06;5028636;28;20017;-66
2022/10/02 08:27:50;;;;;;;15.88;3.17;;;;;;;16.45;97.40;101780.00;5028195;28;20025;-65
2022/10/02 08:30:15;;;;;;;15.55;2.72;;;;;;;16.55;96.63;101781.31;5043395;28;20037;-67
2022/10/02 08:32:42;;;;;;;16.85;3.03;;;;;;;16.58;96.28;101790.13;5027193;28;20403;-66
2022/10/02 08:35:13;;;;;;;13.57;3.00;;;;;;;16.68;95.42;101788.75;5044928;28;20060;-64
2022/10/02 08:38:09;;;;;;;19.73;3.47;;;;;;;16.73;95.54;101801.84;5046892;28;20673;-61
2022/10/02 08:40:37;;;;;;;17.55;3.58;;;;;;;16.83;95.05;101803.19;5048631;28;20123;-66
2022/10/02 08:43:32;;;;;;;17.08;2.72;;;;;;;16.93;94.56;101800.97;5048746;28;20033;-68
2022/10/02 08:46:21;;;;;;;15.90;2.83;;;;;;;16.99;93.49;101803.34;5048773;28;20029;-63
2022/10/02 08:49:36;;;;;;;17.83;2.55;;;;;;;16.96;93.52;101803.47;5038722;28;20578;-66
2022/10/02 08:52:23;;;;;;;18.75;2.85;;;;;;;17.03;93.18;101806.72;5049099;28;20032;-66
2022/10/02 08:55:00;;;;;;;18.00;3.30;;;;;;;17.05;92.67;101811.06;5045729;28;20033;-67
2022/10/02 08:57:42;;;;;;;17.33;2.88;;;;;;;17.09;92.66;101817.13;5048640;28;20145;-66
2022/10/02 09:00:09;;;;;;;18.35;2.58;;;;;;;17.17;92.39;101811.44;5043091;28;20033;-65
2022/10/02 09:03:06;;;;;;;12.57;2.40;;;;;;;17.16;91.50;101807.06;5020995;28;20338;-64
2022/10/02 09:05:59;;;;;;;19.00;2.90;;;;;;;17.21;90.85;101815.69;5041901;28;20075;-66
2022/10/02 09:08:56;;;;;;;15.68;2.85;;;;;;;17.09;92.21;101817.13;5028568;28;20498;-68
2022/10/02 09:11:36;;;;;;;16.45;3.00;;;;;;;16.98;91.07;101827.38;5042208;28;20047;-64
2022/10/02 09:14:27;;;;;;;15.00;2.70;;;;;;;16.91;91.44;101832.97;5047226;28;20051;-66
2022/10/02 09:17:19;;;;;;;16.70;2.78;;;;;;;16.84;92.66;101831.53;5010794;28;20029;-67
2022/10/02 09:20:09;;;;;;;17.02;3.13;;;;;;;16.84;92.50;101838.63;5018949;28;20558;-66
2022/10/02 09:22:45;;;;;;;19.23;2.85;;;;;;;16.91;91.73;101840.94;5036845;28;20025;-69
2022/10/02 09:25:41;;;;;;;12.65;2.70;;;;;;;17.04;91.31;101840.41;5033699;28;20117;-64
2022/10/02 09:28:30;;;;;;;17.23;3.20;;;;;;;17.32;90.23;101848.94;5040087;28;20013;-64
2022/10/02 09:31:17;;;;;;;19.85;2.95;;;;;;;17.41;87.78;101854.72;5047715;28;20124;-63
2022/10/02 09:34:11;;;;;;;11.77;2.42;;;;;;;17.46;85.55;101845.66;5049504;28;20029;-66
2022/10/02 09:36:48;;;;;;;12.93;3.03;;;;;;;17.60;83.68;101852.97;5030886;28;20099;-61
2022/10/02 09:39:31;;;;;;;10.23;2.42;;;;;;;17.61;82.42;101854.72;5031478;28;20083;-66
2022/10/02 09:42:08;;;;;;;15.77;2.50;;;;;;;17.48;81.24;101860.63;5020264;28;20027;-66
2022/10/02 09:44:57;;;;;;;11.20;2.00;;;;;;;17.48;82.56;101862.41;5038867;28;20578;-65
2022/10/02 09:48:19;;;;;;;13.02;2.78;;;;;;;17.59;82.23;101852.13;5036462;28;20076;-62
2022/10/02 09:51:04;;;;;;;11.60;2.67;;;;;;;17.87;82.09;101872.09;5020228;28;20042;-63
2022/10/02 09:53:56;;;;;;;12.63;2.55;;;;;;;18.15;81.85;101872.59;5035947;28;20033;-64
2022/10/02 09:56:27;;;;;;;11.85;2.50;;;;;;;18.43;80.02;101869.38;5018241;28;20068;-63
2022/10/02 09:59:12;;;;;;;14.05;2.38;;;;;;;18.55;78.53;101862.53;5030938;28;20064;-65
2022/10/02 10:02:06;;;;;;;10.02;2.13;;;;;;;18.34;77.83;101874.34;5042776;28;20090;-64
2022/10/02 10:05:32;;;;;;;15.35;2.95;;;;;;;18.29;78.68;101872.75;5020991;28;20032;-65
2022/10/02 10:08:09;;;;;;;18.83;2.90;;;;;;;18.35;78.95;101882.25;4947417;28;20135;-66
2022/10/02 10:11:00;;;;;;;12.00;2.47;;;;;;;18.26;79.83;101877.38;4946231;29;20042;-65
2022/10/02 10:13:37;;;;;;;17.38;2.80;;;;;;;18.01;80.89;101884.78;5006420;28;20048;-64
2022/10/02 10:16:28;;;;;;;16.58;2.42;;;;;;;17.94;80.09;101892.19;5027469;28;20053;-65
2022/10/02 10:19:31;;;;;;;15.02;2.88;;;;;;;17.94;79.53;101894.00;5010857;28;20094;-64
2022/10/02 10:22:38;;;;;;;12.05;2.67;;;;;;;17.96;79.23;101894.78;5038753;28;20040;-65
2022/10/02 10:25:41;;;;;;;14.60;2.83;;;;;;;18.15;78.57;101917.94;4962090;28;20431;-66
2022/10/02 10:28:26;;;;;;;17.30;2.60;;;;;;;18.26;77.39;101898.72;5037675;28;20072;-65
2022/10/02 10:31:18;;;;;;;15.90;2.70;;;;;;;18.33;77.49;101897.47;5022997;28;20483;-64
2022/10/02 10:33:56;;;;;;;11.18;2.63;;;;;;;18.28;77.48;101903.06;5020080;28;20099;-65
2022/10/02 10:40:07;;;;;;;14.45;2.30;;;;;;;18.18;78.00;101913.31;5037826;28;20041;-64
2022/10/02 10:43:13;;;;;;;11.23;2.55;;;;;;;18.28;75.78;101915.53;5036267;28;20031;-64
2022/10/02 10:45:49;;;;;;;16.02;2.25;;;;;;;18.26;73.93;101915.59;4941077;28;20533;-62
2022/10/02 10:48:42;;;;;;;17.38;2.58;;;;;;;18.21;76.29;101932.78;5025889;28;20036;-65
2022/10/02 10:51:35;;;;;;;10.63;2.60;;;;;;;18.25;76.66;101915.69;5020153;28;20025;-65
2022/10/02 10:54:03;;;;;;;12.20;2.50;;;;;;;18.26;76.57;101920.94;5041644;28;20390;-64
2022/10/02 10:56:55;;;;;;;11.48;2.65;;;;;;;18.18;77.30;101929.31;5027117;28;20074;-65
2022/10/02 11:00:07;;;;;;;12.18;2.30;;;;;;;18.23;75.54;101933.53;5018000;28;20034;-62
2022/10/02 11:02:55;;;;;;;17.60;2.97;;;;;;;17.99;75.49;101939.09;5026237;28;20022;-66
2022/10/02 11:05:51;;;;;;;11.00;2.38;;;;;;;17.92;75.62;101944.75;5026792;28;20030;-63
2022/10/02 11:08:44;;;;;;;12.95;2.20;;;;;;;18.00;74.92;101939.03;5030671;28;20033;-64
2022/10/02 11:11:20;;;;;;;8.88;2.33;;;;;;;18.23;76.10;101941.53;5016944;28;20020;-65
2022/10/02 11:14:01;;;;;;;14.93;3.28;;;;;;;18.44;74.36;101948.50;5021528;28;20029;-61
2022/10/02 11:16:32;;;;;;;18.42;2.75;;;;;;;18.44;72.73;101944.97;5037141;28;20041;-62
2022/10/02 11:19:16;;;;;;;12.85;3.13;;;;;;;18.19;73.05;101957.69;5036986;28;20044;-63
2022/10/02 11:21:50;;;;;;;14.10;2.75;;;;;;;18.26;73.46;101957.41;5040731;28;20037;-65
2022/10/02 11:24:21;;;;;;;17.60;2.83;;;;;;;18.46;72.44;101955.56;5048882;28;20041;-63
2022/10/02 11:27:10;;;;;;;16.10;2.90;;;;;;;18.73;72.65;101963.13;5021385;28;20025;-65
2022/10/02 11:29:58;;;;;;;6.57;1.90;;;;;;;19.04;71.86;101969.56;5028135;28;20051;-66
2022/10/02 11:32:35;;;;;;;13.88;2.83;;;;;;;19.24;70.82;101954.31;5047138;28;20372;-63
2022/10/02 11:35:09;;;;;;;16.65;2.97;;;;;;;19.24;70.59;101957.88;5047503;28;20506;-64
2022/10/02 11:37:53;;;;;;;10.85;2.15;;;;;;;19.17;72.09;101957.31;5048043;28;20025;-66
2022/10/02 11:40:39;;;;;;;16.40;2.58;;;;;;;18.97;72.93;101960.13;5046894;28;20021;-61
2022/10/02 11:43:12;;;;;;;16.85;2.78;;;;;;;18.65;76.21;101967.06;5029820;28;20025;-64
2022/10/02 11:46:13;;;;;;;11.50;2.80;;;;;;;17.98;81.07;101977.38;5047608;28;20068;-64
2022/10/02 11:48:44;;;;;;;13.80;2.88;;;;;;;17.58;83.29;101982.75;5031224;28;20591;-65
2022/10/02 11:51:33;;;;;;;15.82;3.00;;;;;;;17.35;84.01;101982.88;5041975;28;20021;-64
2022/10/02 11:54:28;;;;;;;11.32;2.50;;;;;;;17.23;85.76;101976.28;5045670;28;20128;-65
2022/10/02 11:57:15;;;;;;;12.40;2.17;;;;;;;17.22;86.92;101981.69;5047319;28;20032;-61
2022/10/02 12:00:01;;;;;;;14.80;2.55;;;;;;;17.11;85.51;101983.00;5047263;28;20045;-65
2022/10/02 12:02:46;;;;;;;15.27;2.63;;;;;;;17.41;85.47;101987.94;5047323;28;20029;-64
2022/10/02 12:05:24;;;;;;;17.58;3.30;;;;;;;17.54;84.16;101982.03;5029776;28;20029;-63
2022/10/02 12:08:00;;;;;;;14.30;2.40;;;;;;;17.49;82.57;101990.22;5047430;28;20104;-65
2022/10/02 12:10:36;;;;;;;14.52;3.08;;;;;;;17.70;81.20;101997.34;5029084;28;20032;-63
2022/10/02 12:13:26;;;;;;;13.88;2.60;;;;;;;17.77;80.43;102001.44;5049835;28;20025;-64